Stockett, MT (59480)

1:07 AM MST on February 21, 2017 (GMT -0700)
FOB Cassidy | | Change Station

Elev 3763 ft 47.38 °N, 111.28 °W | Updated 10 seconds ago

Clear
Clear
42.4 °F
Feels Like 35 °F
N
15.2
Wind Variable Wind from SW
Gusts 17.4 mph

Today
High -- | Low -- °F
--% Chance of Precip.
Yesterday
High -- | Low -- °F
Precip. -- in
Pressure 29.68 in
Visibility 10.0 miles
Clouds Clear
Windchill 35 °F
Dew Point 31 °F
Humidity 63%
Rainfall 0.00 in
Snow Depth Not available.
7:18 AM 5:58 PM
Waning Crescent, 27% visible
METAR KGFA 210758Z AUTO 22017KT 10SM CLR 05/00 A2964 RMK AO2 SLP050 T00471002 TSNO $
Pressure 29.68 in
Visibility 10.0 miles
Clouds Clear
Windchill 35 °F
Dew Point 31 °F
Humidity 63%
Rainfall 0.00 in
Snow Depth Not available.
7:18 AM 5:58 PM
Waning Crescent, 27% visible
METAR KGFA 210758Z AUTO 22017KT 10SM CLR 05/00 A2964 RMK AO2 SLP050 T00471002 TSNO $

Get Your Daily Forecast Email!

Thanks for signing up!

Be on the lookout for a verification email in your inbox.

You'll start receiving the daily forecast at 8 AM.

×

10-Day Weather Forecast

Almanac

Astronomy

Feb. 21, 2017 Rise Set
Actual Time
Civil Twilight
Nautical Twilight
Astronomical Twilight
Moon
Length of Visible Light
Length of Day
Tomorrow will be .
, % of the Moon is Illuminated

Today's Extremes

State Highs State Lows

Community

WunderPhotos

Upload Photos

1,962,540 photos uploaded!

WunderBlog® & News

Nearby

Air Quality

  Air Quality AQ Index Pollutant
Not available.

Snow Depth

Station Depth Elevation

Earthquake Activity

City Distance Mag. Time & Date
Minimum magnitude displayed is 2.5.

Coastal Water Temperatures

Place Temperature

Stations

Nearby Weather Stations

Station Location Temp. Windchill Dew Point Humidity Wind Precip. Elev Updated Type
                   

Watches & Warnings

There are currently no watches in effect.